Time;durP1;ratioP1;P1;durP2;ratioP2;P2;SDS_P1;SDS_P2;PMS_P1;PMS_P2;Temp;Humidity;BMP_temperature;BMP_pressure;BME280_temperature;BME280_humidity;BME280_pressure;Samples;Min_cycle;Max_cycle;Signal;HPM_P1;HPM_P2
2022/10/28 00:01:15;;;;;;;15.37;7.00;;;10.30;99.90;;;;;;5068795;28;20566;-61
2022/10/28 00:03:45;;;;;;;13.30;6.87;;;10.30;99.90;;;;;;5068471;28;20479;-60
2022/10/28 00:06:17;;;;;;;13.30;6.00;;;10.30;99.90;;;;;;5076208;28;20469;-61
2022/10/28 00:08:43;;;;;;;16.83;6.20;;;10.30;99.90;;;;;;5067206;28;20411;-61
2022/10/28 00:11:11;;;;;;;9.03;5.73;;;10.30;99.90;;;;;;5061396;28;21192;-61
2022/10/28 00:13:38;;;;;;;14.97;6.67;;;10.30;99.90;;;;;;5072016;28;20175;-61
2022/10/28 00:16:05;;;;;;;10.90;5.50;;;10.30;99.90;;;;;;5079275;28;20452;-61
2022/10/28 00:18:30;;;;;;;11.50;5.40;;;10.20;99.90;;;;;;5093935;28;20428;-61
2022/10/28 00:21:04;;;;;;;10.60;6.03;;;10.20;99.90;;;;;;5067010;28;20452;-61
2022/10/28 00:23:30;;;;;;;10.70;6.30;;;10.20;99.90;;;;;;5068662;28;20235;-60
2022/10/28 00:26:12;;;;;;;15.17;6.33;;;10.20;99.90;;;;;;5077984;28;20424;-61
2022/10/28 00:28:46;;;;;;;8.93;5.53;;;10.20;99.90;;;;;;5074169;28;20189;-61
2022/10/28 00:31:15;;;;;;;10.77;5.97;;;10.10;99.90;;;;;;5069645;28;20459;-61
2022/10/28 00:33:41;;;;;;;14.37;5.70;;;10.10;99.90;;;;;;5068817;28;20437;-61
2022/10/28 00:36:20;;;;;;;10.90;5.60;;;10.10;99.90;;;;;;5067599;28;20429;-61
2022/10/28 00:38:49;;;;;;;12.53;5.73;;;10.10;99.90;;;;;;5060832;28;20515;-61
2022/10/28 00:41:17;;;;;;;12.33;5.50;;;10.10;99.90;;;;;;5064105;28;21057;-60
2022/10/28 00:43:48;;;;;;;10.03;6.00;;;10.10;99.90;;;;;;5070400;28;20441;-61
2022/10/28 00:46:17;;;;;;;18.90;5.00;;;10.10;99.90;;;;;;5074483;28;20468;-61
2022/10/28 00:48:46;;;;;;;6.97;4.83;;;10.10;99.90;;;;;;5061683;28;20460;-61
2022/10/28 00:51:13;;;;;;;6.60;5.20;;;10.10;99.90;;;;;;5072139;28;20441;-61
2022/10/28 00:53:41;;;;;;;13.70;5.23;;;10.10;99.90;;;;;;5074725;28;20420;-61
2022/10/28 00:56:09;;;;;;;10.27;5.63;;;10.10;99.90;;;;;;5066708;28;20562;-61
2022/10/28 00:58:34;;;;;;;8.70;5.13;;;10.00;99.90;;;;;;5068130;28;20775;-60
2022/10/28 01:01:00;;;;;;;7.80;5.07;;;10.00;99.90;;;;;;5067236;28;20432;-62
2022/10/28 01:03:26;;;;;;;8.20;5.43;;;10.00;99.90;;;;;;5067581;28;20199;-61
2022/10/28 01:05:52;;;;;;;11.53;5.37;;;10.00;99.90;;;;;;5067986;28;20204;-61
2022/10/28 01:08:18;;;;;;;9.23;5.27;;;10.00;99.90;;;;;;5072161;28;20702;-60
2022/10/28 01:11:08;;;;;;;7.13;4.87;;;10.00;99.90;;;;;;5070502;28;20535;-61
2022/10/28 01:13:58;;;;;;;10.07;5.00;;;9.90;99.90;;;;;;5062879;28;20490;-61
2022/10/28 01:16:59;;;;;;;8.53;4.77;;;9.90;99.90;;;;;;5070892;28;20435;-61
2022/10/28 01:19:52;;;;;;;10.10;4.70;;;9.90;99.90;;;;;;5008956;28;20426;-61
2022/10/28 01:22:26;;;;;;;15.03;4.90;;;9.80;99.90;;;;;;5076235;28;20474;-61
2022/10/28 01:25:13;;;;;;;13.80;5.30;;;9.80;99.90;;;;;;5083247;28;20471;-61
2022/10/28 01:27:54;;;;;;;8.43;4.67;;;9.80;99.90;;;;;;5075548;28;20412;-61
2022/10/28 01:30:28;;;;;;;12.13;5.30;;;9.70;99.90;;;;;;5077514;28;21173;-61
2022/10/28 01:33:27;;;;;;;6.80;4.83;;;9.70;99.90;;;;;;5076950;28;20428;-61
2022/10/28 01:36:01;;;;;;;9.30;4.70;;;9.70;99.90;;;;;;5049756;28;20575;-61
2022/10/28 01:39:08;;;;;;;11.10;4.33;;;9.60;99.90;;;;;;5066677;28;20505;-61
2022/10/28 01:42:00;;;;;;;11.23;4.40;;;9.60;99.90;;;;;;5000596;28;20456;-61
2022/10/28 01:45:08;;;;;;;12.10;4.47;;;9.50;99.90;;;;;;5061244;28;20472;-61
2022/10/28 01:47:54;;;;;;;7.07;4.30;;;9.50;99.90;;;;;;5068339;28;20412;-61
2022/10/28 01:50:30;;;;;;;8.83;4.63;;;9.50;99.90;;;;;;5083362;28;20519;-61
2022/10/28 01:52:59;;;;;;;7.00;4.87;;;9.50;99.90;;;;;;5047457;28;20421;-63
2022/10/28 01:55:30;;;;;;;21.40;4.80;;;9.50;99.90;;;;;;5063183;28;20860;-61
2022/10/28 01:57:58;;;;;;;15.83;5.37;;;9.50;99.90;;;;;;5068595;28;20427;-61
2022/10/28 02:00:25;;;;;;;8.20;4.90;;;9.50;99.90;;;;;;5075367;28;20448;-61
2022/10/28 02:02:51;;;;;;;36.67;6.30;;;9.50;99.90;;;;;;5068628;28;20510;-61
2022/10/28 02:05:36;;;;;;;11.40;4.63;;;9.40;99.90;;;;;;5070167;28;20448;-61
2022/10/28 02:08:17;;;;;;;14.43;5.10;;;9.40;99.90;;;;;;5067131;28;20524;-61
2022/10/28 02:10:48;;;;;;;25.67;5.70;;;9.40;99.90;;;;;;5071871;28;20609;-60
2022/10/28 02:13:17;;;;;;;25.77;5.20;;;9.40;99.90;;;;;;5064097;28;20500;-61
2022/10/28 02:15:50;;;;;;;46.97;6.67;;;9.40;99.90;;;;;;5070527;28;20447;-61
2022/10/28 02:18:47;;;;;;;18.87;5.70;;;9.40;99.90;;;;;;5076796;28;20439;-61
2022/10/28 02:21:48;;;;;;;18.93;5.57;;;9.40;99.90;;;;;;5060301;28;20511;-60
2022/10/28 02:24:26;;;;;;;20.10;4.80;;;9.40;99.90;;;;;;5070733;28;20440;-60
2022/10/28 02:27:00;;;;;;;29.30;5.03;;;9.40;99.90;;;;;;5077737;28;20423;-61
2022/10/28 02:29:32;;;;;;;15.90;4.47;;;9.40;99.90;;;;;;5067390;28;20424;-61
2022/10/28 02:32:08;;;;;;;16.83;5.07;;;9.30;99.90;;;;;;5065436;28;20817;-61
2022/10/28 02:34:39;;;;;;;14.40;4.00;;;9.30;99.90;;;;;;5066223;28;20433;-61
2022/10/28 02:37:11;;;;;;;23.90;5.40;;;9.30;99.90;;;;;;5063595;28;20989;-61
2022/10/28 02:39:40;;;;;;;5.93;4.30;;;9.30;99.90;;;;;;5066516;28;20515;-61
2022/10/28 02:42:16;;;;;;;5.60;4.00;;;9.30;99.90;;;;;;5066068;28;21036;-61
2022/10/28 02:44:51;;;;;;;19.70;4.50;;;9.30;99.90;;;;;;5068473;28;20436;-61
2022/10/28 02:47:21;;;;;;;13.03;4.90;;;9.20;99.90;;;;;;5063575;28;20430;-61
2022/10/28 02:49:52;;;;;;;9.97;4.47;;;9.30;99.90;;;;;;5066373;28;20428;-60
2022/10/28 02:52:20;;;;;;;8.80;5.23;;;9.20;99.90;;;;;;5069985;28;20429;-60
2022/10/28 02:54:54;;;;;;;11.00;4.70;;;9.30;99.90;;;;;;5064676;28;20527;-60
2022/10/28 02:57:26;;;;;;;8.03;5.70;;;9.30;99.90;;;;;;5073735;28;20438;-61
2022/10/28 02:59:54;;;;;;;13.30;5.40;;;9.30;99.90;;;;;;5067077;28;20440;-60
2022/10/28 03:02:20;;;;;;;10.40;6.30;;;9.20;99.90;;;;;;5065323;28;20522;-61
2022/10/28 03:04:46;;;;;;;7.20;5.30;;;9.20;99.90;;;;;;5077259;28;20443;-61
2022/10/28 03:07:11;;;;;;;10.50;5.53;;;9.20;99.90;;;;;;5072559;28;20174;-61
2022/10/28 03:09:37;;;;;;;13.53;5.30;;;9.20;99.90;;;;;;5066735;28;20866;-61
2022/10/28 03:12:02;;;;;;;13.00;5.37;;;9.20;99.90;;;;;;5067889;28;20203;-61
2022/10/28 03:14:28;;;;;;;7.00;4.83;;;9.20;99.90;;;;;;5069831;28;20648;-60
2022/10/28 03:16:53;;;;;;;5.93;5.07;;;9.20;99.90;;;;;;5076310;28;20182;-61
2022/10/28 03:19:19;;;;;;;12.73;5.83;;;9.20;99.90;;;;;;5075144;28;20232;-60
2022/10/28 03:21:45;;;;;;;10.87;6.10;;;9.20;99.90;;;;;;5072771;28;20194;-60
2022/10/28 03:24:10;;;;;;;7.70;5.33;;;9.20;99.90;;;;;;5074939;28;20174;-61
2022/10/28 03:26:36;;;;;;;8.93;5.83;;;9.20;99.90;;;;;;5073856;28;20178;-60
2022/10/28 03:29:02;;;;;;;9.23;5.20;;;9.20;99.90;;;;;;5077751;28;20177;-61
2022/10/28 03:31:27;;;;;;;16.00;6.10;;;9.20;99.90;;;;;;5073563;28;20214;-61
2022/10/28 03:33:53;;;;;;;10.07;6.20;;;9.20;99.90;;;;;;5079145;28;20574;-61
2022/10/28 03:36:18;;;;;;;12.20;5.97;;;9.20;99.90;;;;;;5076521;28;20239;-60
2022/10/28 03:38:44;;;;;;;8.87;5.90;;;9.20;99.90;;;;;;5078407;28;20199;-61
2022/10/28 03:41:09;;;;;;;11.27;5.97;;;9.20;99.90;;;;;;5073580;28;20194;-60
2022/10/28 03:43:35;;;;;;;8.53;5.10;;;9.20;99.90;;;;;;5069421;28;20205;-61
2022/10/28 03:46:01;;;;;;;11.33;5.40;;;9.20;99.90;;;;;;5080820;28;20178;-61
2022/10/28 03:48:26;;;;;;;14.70;5.47;;;9.20;99.90;;;;;;5087354;28;20174;-61
2022/10/28 03:50:53;;;;;;;10.20;5.40;;;9.20;99.90;;;;;;5082338;28;20190;-60
2022/10/28 03:53:19;;;;;;;7.13;4.73;;;9.20;99.90;;;;;;5066549;28;20620;-61
2022/10/28 03:55:57;;;;;;;8.30;4.30;;;9.20;99.90;;;;;;5071081;28;20458;-61
2022/10/28 03:58:23;;;;;;;5.20;4.60;;;9.20;99.90;;;;;;5070847;28;20525;-61
2022/10/28 04:00:50;;;;;;;5.53;4.70;;;9.20;99.90;;;;;;5066777;28;20575;-61
2022/10/28 04:03:17;;;;;;;6.03;4.47;;;9.20;99.90;;;;;;5071198;28;20495;-58
2022/10/28 04:05:43;;;;;;;5.80;4.50;;;9.20;99.90;;;;;;5066509;28;20433;-58
2022/10/28 04:08:09;;;;;;;5.07;4.37;;;9.30;99.90;;;;;;5069775;28;20439;-58
2022/10/28 04:10:35;;;;;;;4.83;4.30;;;9.30;99.90;;;;;;5073191;28;20462;-59
2022/10/28 04:13:02;;;;;;;4.93;4.43;;;9.30;99.90;;;;;;5068874;28;20221;-58
2022/10/28 04:15:28;;;;;;;4.63;4.17;;;9.30;99.90;;;;;;5072097;28;20535;-59
2022/10/28 04:17:53;;;;;;;5.13;4.23;;;9.40;99.90;;;;;;5071170;28;20444;-58
2022/10/28 04:20:19;;;;;;;8.00;4.77;;;9.40;99.90;;;;;;5067362;28;20281;-58
2022/10/28 04:22:45;;;;;;;9.63;4.60;;;9.40;99.90;;;;;;5056297;28;20198;-58
2022/10/28 04:25:10;;;;;;;8.93;5.20;;;9.50;99.90;;;;;;5072979;28;20174;-58
2022/10/28 04:27:36;;;;;;;10.00;5.60;;;9.40;99.90;;;;;;5063355;28;20289;-59
2022/10/28 04:30:02;;;;;;;7.53;4.97;;;9.50;99.90;;;;;;5061158;28;20190;-59
2022/10/28 04:32:28;;;;;;;12.53;6.10;;;9.50;99.90;;;;;;5059465;28;20194;-58
2022/10/28 04:34:54;;;;;;;15.70;6.27;;;9.50;99.90;;;;;;5066142;28;20424;-61
2022/10/28 04:37:19;;;;;;;13.30;6.00;;;9.50;99.90;;;;;;5067856;28;20183;-61
2022/10/28 04:39:45;;;;;;;10.33;6.53;;;9.40;99.90;;;;;;5062362;28;20194;-61
2022/10/28 04:42:10;;;;;;;7.70;5.50;;;9.40;99.90;;;;;;5067921;28;20627;-61
2022/10/28 04:44:36;;;;;;;11.20;6.40;;;9.40;99.90;;;;;;5067886;28;20177;-61
2022/10/28 04:47:01;;;;;;;10.77;5.53;;;9.40;99.90;;;;;;5063135;28;20778;-61
2022/10/28 04:49:27;;;;;;;11.20;5.80;;;9.40;99.90;;;;;;5061433;28;20173;-61
2022/10/28 04:51:53;;;;;;;15.67;6.10;;;9.30;99.90;;;;;;5060496;28;20418;-60
2022/10/28 04:54:18;;;;;;;10.80;5.33;;;9.30;99.90;;;;;;5068896;28;20181;-60
2022/10/28 04:56:44;;;;;;;12.40;5.63;;;9.30;99.90;;;;;;5079739;28;20177;-61
2022/10/28 04:59:09;;;;;;;13.80;6.37;;;9.30;99.90;;;;;;5065604;28;20189;-60
2022/10/28 05:01:36;;;;;;;10.57;5.80;;;9.30;99.90;;;;;;5065530;28;20217;-61
2022/10/28 05:04:01;;;;;;;12.57;5.57;;;9.30;99.90;;;;;;5070782;28;20178;-61
2022/10/28 05:06:27;;;;;;;10.30;5.00;;;9.30;99.90;;;;;;5065829;28;20598;-60
2022/10/28 05:08:52;;;;;;;11.93;5.83;;;9.30;99.90;;;;;;5066751;28;20758;-61
2022/10/28 05:11:18;;;;;;;8.07;5.90;;;9.30;99.90;;;;;;5068733;28;20881;-61
2022/10/28 05:13:44;;;;;;;12.77;7.03;;;9.30;99.90;;;;;;5068242;28;20169;-61
2022/10/28 05:16:09;;;;;;;9.57;6.20;;;9.30;99.90;;;;;;5065271;28;20621;-61
2022/10/28 05:18:35;;;;;;;12.43;7.30;;;9.30;99.90;;;;;;5064333;28;20519;-61
2022/10/28 05:21:00;;;;;;;8.30;5.90;;;9.30;99.90;;;;;;5066165;28;20286;-61
2022/10/28 05:23:26;;;;;;;21.20;5.90;;;9.20;99.90;;;;;;5076832;28;20242;-61
2022/10/28 05:25:52;;;;;;;11.53;5.90;;;9.20;99.90;;;;;;5067009;28;20532;-61
2022/10/28 05:28:17;;;;;;;10.87;5.40;;;9.20;99.90;;;;;;5062931;28;20171;-61
2022/10/28 05:30:43;;;;;;;13.43;5.50;;;9.20;99.90;;;;;;5065477;28;20210;-61
2022/10/28 05:33:10;;;;;;;11.13;5.50;;;9.20;99.90;;;;;;5065593;28;20555;-60
2022/10/28 05:35:38;;;;;;;13.23;5.77;;;9.20;99.90;;;;;;5067380;28;20433;-61
2022/10/28 05:38:04;;;;;;;16.00;5.93;;;9.20;99.90;;;;;;5065801;28;20833;-61
2022/10/28 05:40:31;;;;;;;8.17;6.00;;;9.20;99.90;;;;;;5067123;28;20986;-61
2022/10/28 05:42:57;;;;;;;10.97;5.40;;;9.20;99.90;;;;;;5073940;28;20505;-61
2022/10/28 05:45:23;;;;;;;12.43;6.27;;;9.20;99.90;;;;;;5066501;28;20424;-61
2022/10/28 05:47:49;;;;;;;15.20;5.83;;;9.30;99.90;;;;;;5064090;28;20437;-60
2022/10/28 05:50:17;;;;;;;10.83;5.63;;;9.30;99.90;;;;;;5061601;28;20255;-61
2022/10/28 05:52:56;;;;;;;10.17;6.00;;;9.30;99.90;;;;;;5063908;28;20664;-60
2022/10/28 05:55:24;;;;;;;12.40;7.00;;;9.30;99.90;;;;;;5068600;28;20473;-61
2022/10/28 05:57:50;;;;;;;10.60;6.67;;;9.30;99.90;;;;;;5063952;28;20926;-61
2022/10/28 06:00:22;;;;;;;12.97;6.57;;;9.40;99.90;;;;;;5067579;28;20455;-61
2022/10/28 06:02:48;;;;;;;14.33;6.40;;;9.40;99.90;;;;;;5064538;28;20448;-60
2022/10/28 06:05:13;;;;;;;22.57;6.90;;;9.40;99.90;;;;;;5073294;28;20474;-61
2022/10/28 06:07:40;;;;;;;11.83;6.80;;;9.40;99.90;;;;;;5068950;28;20303;-60
2022/10/28 06:10:08;;;;;;;20.33;8.47;;;9.40;99.90;;;;;;5068419;28;20437;-60
2022/10/28 06:12:34;;;;;;;17.90;6.87;;;9.40;99.90;;;;;;5082657;28;20485;-61
2022/10/28 06:15:00;;;;;;;14.90;6.33;;;9.50;99.90;;;;;;5064628;28;20429;-61
2022/10/28 06:17:25;;;;;;;12.60;6.57;;;9.50;99.90;;;;;;5064884;28;20185;-60
2022/10/28 06:19:51;;;;;;;12.93;6.47;;;9.50;99.90;;;;;;5069517;28;20182;-60
2022/10/28 06:22:17;;;;;;;21.73;7.33;;;9.50;99.90;;;;;;5073727;28;20669;-61
2022/10/28 06:24:43;;;;;;;13.27;5.80;;;9.50;99.90;;;;;;5060328;28;20177;-61
2022/10/28 06:27:08;;;;;;;9.73;6.77;;;9.50;99.90;;;;;;5062181;28;20791;-60
2022/10/28 06:29:35;;;;;;;14.40;6.20;;;9.60;99.90;;;;;;5065106;28;20175;-61
2022/10/28 06:32:01;;;;;;;15.23;6.60;;;9.60;99.90;;;;;;5063670;28;20284;-60
2022/10/28 06:34:26;;;;;;;17.83;6.67;;;9.60;99.90;;;;;;5064159;28;20433;-61
2022/10/28 06:36:52;;;;;;;8.40;6.10;;;9.60;99.90;;;;;;5073730;28;20178;-61
2022/10/28 06:39:17;;;;;;;13.60;6.10;;;9.70;99.90;;;;;;5064395;28;20179;-60
2022/10/28 06:41:44;;;;;;;9.80;5.77;;;9.70;99.90;;;;;;5063126;28;20194;-60
2022/10/28 06:44:10;;;;;;;14.67;5.90;;;9.70;99.90;;;;;;5093253;28;20190;-60
2022/10/28 06:46:35;;;;;;;11.80;6.00;;;9.70;99.90;;;;;;5058655;28;20428;-60
2022/10/28 06:49:04;;;;;;;13.50;6.00;;;9.70;99.90;;;;;;5065367;28;20194;-61
2022/10/28 06:51:31;;;;;;;12.50;6.00;;;9.70;99.90;;;;;;5059214;28;20202;-61
2022/10/28 06:53:58;;;;;;;15.00;6.30;;;9.70;99.90;;;;;;5063064;28;20542;-61
2022/10/28 06:56:23;;;;;;;10.23;6.53;;;9.70;99.90;;;;;;5066309;28;20497;-60
2022/10/28 06:58:50;;;;;;;11.40;6.90;;;9.70;99.90;;;;;;5065712;28;20896;-61
2022/10/28 07:01:16;;;;;;;19.03;6.77;;;9.70;99.90;;;;;;5067954;28;20202;-61
2022/10/28 07:03:41;;;;;;;11.67;6.70;;;9.70;99.90;;;;;;5065919;28;20445;-61
2022/10/28 07:06:07;;;;;;;10.90;6.20;;;9.70;99.90;;;;;;5073144;28;20177;-60
2022/10/28 07:08:33;;;;;;;11.63;6.77;;;9.80;99.90;;;;;;5069247;28;21040;-61
2022/10/28 07:10:59;;;;;;;14.20;8.60;;;9.80;99.90;;;;;;5068256;28;20191;-60
2022/10/28 07:13:26;;;;;;;16.40;9.10;;;9.80;99.90;;;;;;5074958;28;20181;-61
2022/10/28 07:15:56;;;;;;;11.90;6.40;;;9.80;99.90;;;;;;5068149;28;20440;-60
2022/10/28 07:18:23;;;;;;;13.53;6.57;;;9.90;99.90;;;;;;5069304;28;21071;-61
2022/10/28 07:20:49;;;;;;;15.37;7.57;;;9.90;99.90;;;;;;5069930;28;20543;-61
2022/10/28 07:23:16;;;;;;;13.03;5.80;;;10.00;99.90;;;;;;5071972;28;20471;-61
2022/10/28 07:25:41;;;;;;;16.43;6.97;;;10.00;99.90;;;;;;5051218;28;20466;-61
2022/10/28 07:28:07;;;;;;;16.63;7.40;;;10.10;99.90;;;;;;5068746;28;20426;-61
2022/10/28 07:30:33;;;;;;;14.03;6.53;;;10.10;99.90;;;;;;5071273;28;20716;-60
2022/10/28 07:33:00;;;;;;;10.73;6.40;;;10.10;99.90;;;;;;5065695;28;20424;-61
2022/10/28 07:35:29;;;;;;;11.57;6.00;;;10.20;99.90;;;;;;5065751;28;20660;-61
2022/10/28 07:37:56;;;;;;;14.80;6.50;;;10.20;99.90;;;;;;5061860;28;20440;-61
2022/10/28 07:40:23;;;;;;;13.60;5.93;;;10.30;99.90;;;;;;5064926;28;20513;-61
2022/10/28 07:42:49;;;;;;;14.43;5.60;;;10.30;99.90;;;;;;5062815;28;20451;-61
2022/10/28 07:45:15;;;;;;;10.63;6.40;;;10.40;99.90;;;;;;5075858;28;20433;-61
2022/10/28 07:47:41;;;;;;;11.20;6.30;;;10.40;99.90;;;;;;5083865;28;20689;-61
2022/10/28 07:50:08;;;;;;;15.60;6.40;;;10.50;99.90;;;;;;5065225;28;20424;-60
2022/10/28 07:52:35;;;;;;;11.07;6.40;;;10.50;99.90;;;;;;5069659;28;20187;-61
2022/10/28 07:55:01;;;;;;;16.60;7.10;;;10.60;99.90;;;;;;5069327;28;20943;-60
2022/10/28 07:57:27;;;;;;;13.13;7.07;;;10.60;99.90;;;;;;5057087;28;20490;-61
2022/10/28 07:59:53;;;;;;;11.93;6.70;;;10.70;99.90;;;;;;5065296;28;20432;-60
2022/10/28 08:02:21;;;;;;;13.63;6.60;;;10.70;99.90;;;;;;5063606;28;20329;-61
2022/10/28 08:04:47;;;;;;;13.43;7.60;;;10.70;99.90;;;;;;5067857;28;20228;-61
2022/10/28 08:07:14;;;;;;;13.73;7.23;;;10.80;99.90;;;;;;5066563;28;20421;-61
2022/10/28 08:09:40;;;;;;;13.30;6.70;;;10.80;99.90;;;;;;5073731;28;20257;-61
2022/10/28 08:12:06;;;;;;;13.57;6.40;;;10.80;99.90;;;;;;5069635;28;20471;-61
2022/10/28 08:14:32;;;;;;;14.70;6.40;;;10.90;99.90;;;;;;5077419;28;20439;-61
2022/10/28 08:16:58;;;;;;;13.23;5.70;;;10.90;99.90;;;;;;5066730;28;20468;-61
2022/10/28 08:19:24;;;;;;;14.03;5.53;;;10.90;99.90;;;;;;5071269;28;20466;-61
2022/10/28 08:21:49;;;;;;;10.17;6.63;;;11.00;99.90;;;;;;5065493;28;20215;-61
2022/10/28 08:24:15;;;;;;;14.43;6.83;;;11.00;99.90;;;;;;5070325;28;20175;-61
2022/10/28 08:26:41;;;;;;;15.93;6.60;;;11.10;99.90;;;;;;5072468;28;20180;-61
2022/10/28 08:29:09;;;;;;;16.00;6.70;;;11.10;99.90;;;;;;5077689;28;20179;-61
2022/10/28 08:31:34;;;;;;;11.33;5.87;;;11.20;99.90;;;;;;5070488;28;20202;-61
2022/10/28 08:34:00;;;;;;;7.13;5.43;;;11.20;99.90;;;;;;5073844;28;20448;-61
2022/10/28 08:36:26;;;;;;;11.33;6.20;;;11.30;99.90;;;;;;5066423;28;20171;-61
2022/10/28 08:38:51;;;;;;;18.37;6.00;;;11.30;99.90;;;;;;5068155;28;20179;-58
2022/10/28 08:41:47;;;;;;;9.00;5.10;;;11.40;99.90;;;;;;5066454;28;20672;-61
2022/10/28 08:44:47;;;;;;;10.77;5.60;;;11.40;99.90;;;;;;5077685;28;20184;-61
2022/10/28 08:47:29;;;;;;;9.93;4.70;;;11.50;99.90;;;;;;5060945;28;20433;-61
2022/10/28 08:50:01;;;;;;;10.47;4.70;;;11.60;99.90;;;;;;5066261;28;20460;-61
2022/10/28 08:52:53;;;;;;;8.53;4.83;;;11.70;99.90;;;;;;5067072;28;20476;-60
2022/10/28 08:55:18;;;;;;;10.27;4.83;;;11.70;99.90;;;;;;5070195;28;20452;-60
2022/10/28 08:58:22;;;;;;;10.60;5.77;;;11.70;99.90;;;;;;5068470;28;20515;-61
2022/10/28 09:00:58;;;;;;;11.60;5.37;;;11.80;99.90;;;;;;5065544;28;20239;-62
2022/10/28 09:03:32;;;;;;;13.70;5.53;;;11.90;99.90;;;;;;5066508;28;20459;-61
2022/10/28 09:06:09;;;;;;;12.97;5.07;;;12.00;99.90;;;;;;5076209;28;20425;-61
2022/10/28 09:08:38;;;;;;;9.03;5.27;;;12.00;99.90;;;;;;5068353;28;20420;-61
2022/10/28 09:11:03;;;;;;;19.53;6.00;;;12.10;99.90;;;;;;5068202;28;20518;-60
2022/10/28 09:13:41;;;;;;;15.33;5.90;;;12.10;99.90;;;;;;5066201;28;20475;-61
2022/10/28 09:16:15;;;;;;;7.83;4.93;;;12.30;99.90;;;;;;5068699;28;20262;-61
2022/10/28 09:18:55;;;;;;;8.43;4.73;;;12.40;99.90;;;;;;5071917;28;20425;-61
2022/10/28 09:21:23;;;;;;;17.83;5.57;;;12.50;99.90;;;;;;5065757;28;20970;-61
2022/10/28 09:23:57;;;;;;;7.57;4.73;;;12.70;99.90;;;;;;5067881;28;20459;-61
2022/10/28 09:26:32;;;;;;;9.57;5.10;;;12.80;99.90;;;;;;5070380;28;20417;-61
2022/10/28 09:29:09;;;;;;;13.50;4.60;;;12.80;99.90;;;;;;5064374;28;20424;-61
2022/10/28 09:31:52;;;;;;;11.10;4.83;;;13.00;99.90;;;;;;5066485;28;20962;-61
2022/10/28 09:34:41;;;;;;;8.43;5.00;;;13.00;99.90;;;;;;5064956;28;20453;-61
2022/10/28 09:37:16;;;;;;;16.50;5.20;;;13.20;99.90;;;;;;5062452;28;20573;-62
2022/10/28 09:39:47;;;;;;;13.10;4.90;;;13.20;99.90;;;;;;5073394;28;20452;-61
2022/10/28 09:42:24;;;;;;;10.67;5.93;;;13.30;99.90;;;;;;5065141;28;20563;-66
2022/10/28 09:45:19;;;;;;;16.43;6.33;;;13.30;99.90;;;;;;5087189;28;20427;-61
2022/10/28 09:47:53;;;;;;;12.23;6.40;;;13.40;99.90;;;;;;5062210;28;22694;-61
2022/10/28 09:50:23;;;;;;;18.40;6.00;;;13.60;99.90;;;;;;5070211;28;20447;-61
2022/10/28 09:52:53;;;;;;;12.70;6.13;;;13.70;99.90;;;;;;5064968;28;20430;-61
2022/10/28 09:55:21;;;;;;;10.60;5.93;;;13.80;99.90;;;;;;5066827;28;20967;-60
2022/10/28 09:57:46;;;;;;;19.40;6.70;;;13.80;99.90;;;;;;5065076;28;20955;-62
2022/10/28 10:00:14;;;;;;;20.00;7.30;;;13.90;99.90;;;;;;5067016;28;20460;-61
2022/10/28 10:02:41;;;;;;;13.10;6.50;;;14.00;99.90;;;;;;5063464;28;20245;-60
2022/10/28 10:05:12;;;;;;;13.13;6.10;;;14.00;99.90;;;;;;5060134;28;20440;-59
2022/10/28 10:07:43;;;;;;;21.77;6.90;;;14.10;99.90;;;;;;5064263;28;20421;-59
2022/10/28 10:10:20;;;;;;;16.93;6.83;;;14.20;99.90;;;;;;5070348;28;21031;-62
2022/10/28 10:12:49;;;;;;;10.70;6.23;;;14.30;99.90;;;;;;5073049;28;20429;-62
2022/10/28 10:15:26;;;;;;;13.57;6.73;;;14.40;99.90;;;;;;5065684;28;20435;-62
2022/10/28 10:17:54;;;;;;;20.37;7.40;;;14.50;99.90;;;;;;5065251;28;20435;-62
2022/10/28 10:20:20;;;;;;;15.97;7.37;;;14.70;99.90;;;;;;5060911;28;20445;-61
2022/10/28 10:22:47;;;;;;;36.00;8.40;;;14.90;99.90;;;;;;5063240;28;21061;-62
2022/10/28 10:25:19;;;;;;;19.93;8.67;;;15.00;99.90;;;;;;5064348;28;20425;-61
2022/10/28 10:28:12;;;;;;;24.13;10.90;;;15.30;99.90;;;;;;5068172;28;20436;-61
2022/10/28 10:30:47;;;;;;;22.33;9.30;;;15.70;99.90;;;;;;5058219;28;20514;-62
2022/10/28 10:33:22;;;;;;;20.23;7.90;;;16.10;99.90;;;;;;5063330;28;21022;-61
2022/10/28 10:36:03;;;;;;;17.70;8.47;;;16.50;99.90;;;;;;5069936;28;20407;-62
2022/10/28 10:38:30;;;;;;;19.10;7.93;;;16.90;99.90;;;;;;5063492;28;20427;-61
2022/10/28 10:40:56;;;;;;;22.13;8.03;;;17.00;99.90;;;;;;5064737;28;20501;-61
2022/10/28 10:43:33;;;;;;;14.50;7.00;;;17.10;99.90;;;;;;5075174;28;20461;-61
2022/10/28 10:46:11;;;;;;;10.40;6.63;;;17.20;99.90;;;;;;5069307;28;20656;-61
2022/10/28 10:48:36;;;;;;;15.50;7.10;;;17.30;99.90;;;;;;5063322;28;20508;-61
2022/10/28 10:51:23;;;;;;;16.67;10.00;;;17.40;99.90;;;;;;5060491;28;20535;-61
2022/10/28 10:53:55;;;;;;;18.03;7.03;;;17.50;99.90;;;;;;5065197;28;20182;-60
2022/10/28 10:56:27;;;;;;;18.60;8.00;;;17.50;99.90;;;;;;5062947;28;20428;-61
2022/10/28 10:58:55;;;;;;;15.70;6.60;;;17.50;99.90;;;;;;5074716;28;20489;-61
2022/10/28 11:01:27;;;;;;;15.43;6.73;;;17.60;99.90;;;;;;5065745;28;20486;-61
2022/10/28 11:03:59;;;;;;;21.67;6.57;;;17.60;99.90;;;;;;5060523;28;20531;-61
2022/10/28 11:06:37;;;;;;;15.97;7.00;;;17.60;99.90;;;;;;5065373;28;20505;-61
2022/10/28 11:09:06;;;;;;;12.53;6.13;;;17.60;99.90;;;;;;5081909;28;20421;-61
2022/10/28 11:11:41;;;;;;;19.83;6.30;;;17.60;99.90;;;;;;5062341;28;20570;-62
2022/10/28 11:14:09;;;;;;;16.03;5.70;;;17.60;99.90;;;;;;5073370;28;20432;-61
2022/10/28 11:16:50;;;;;;;12.27;5.53;;;17.60;99.90;;;;;;5051149;28;20443;-61
2022/10/28 11:19:34;;;;;;;11.97;6.03;;;17.70;99.90;;;;;;5064459;28;20692;-61
2022/10/28 11:22:08;;;;;;;17.87;6.03;;;17.80;99.90;;;;;;5062112;28;20472;-61
2022/10/28 11:24:57;;;;;;;12.73;5.90;;;17.80;99.90;;;;;;5063466;28;20446;-61
2022/10/28 11:27:44;;;;;;;15.40;5.90;;;17.80;99.90;;;;;;5072203;28;20433;-61
2022/10/28 11:30:17;;;;;;;16.23;5.40;;;17.90;99.90;;;;;;5061423;28;20467;-61
2022/10/28 11:33:07;;;;;;;17.73;5.97;;;18.00;99.90;;;;;;5061797;28;20452;-61
2022/10/28 11:35:42;;;;;;;11.33;4.77;;;18.40;99.90;;;;;;5067737;28;20527;-62
2022/10/28 11:38:23;;;;;;;22.13;5.40;;;18.90;99.90;;;;;;5063940;28;20477;-61
2022/10/28 11:41:30;;;;;;;15.03;4.40;;;19.80;99.90;;;;;;5068309;28;20490;-61
2022/10/28 11:43:59;;;;;;;14.47;4.97;;;20.60;92.30;;;;;;5065863;28;20464;-62
2022/10/28 11:46:27;;;;;;;11.60;4.10;;;21.20;80.90;;;;;;5069023;28;20432;-61
2022/10/28 11:49:10;;;;;;;9.20;4.70;;;21.30;75.90;;;;;;5061803;28;20428;-62
2022/10/28 11:51:58;;;;;;;9.30;4.10;;;21.30;70.50;;;;;;5067945;28;20440;-61
2022/10/28 11:54:56;;;;;;;11.43;4.03;;;21.00;68.20;;;;;;5062816;28;20428;-63
2022/10/28 11:57:41;;;;;;;11.37;4.23;;;20.70;70.50;;;;;;5063540;28;21800;-63
2022/10/28 12:00:24;;;;;;;17.60;5.10;;;20.40;76.70;;;;;;5067490;28;20946;-61
2022/10/28 12:03:14;;;;;;;15.33;4.10;;;20.30;82.90;;;;;;5061209;28;20973;-61
2022/10/28 12:05:40;;;;;;;12.63;3.90;;;20.30;90.20;;;;;;5065353;28;20436;-61
2022/10/28 12:08:27;;;;;;;13.03;4.10;;;20.70;92.70;;;;;;5069464;28;21022;-61
2022/10/28 12:11:20;;;;;;;10.63;5.03;;;21.40;91.60;;;;;;5063770;28;20202;-62
2022/10/28 12:14:01;;;;;;;11.73;4.77;;;21.90;79.00;;;;;;5055764;28;20861;-63
2022/10/28 12:16:41;;;;;;;8.20;4.13;;;21.90;77.00;;;;;;5067048;28;22571;-61
2022/10/28 12:19:14;;;;;;;12.00;4.20;;;21.80;75.20;;;;;;5071656;28;20424;-62
2022/10/28 12:22:01;;;;;;;16.20;4.33;;;21.60;75.70;;;;;;5059552;28;20472;-62
2022/10/28 12:24:29;;;;;;;11.03;4.47;;;21.50;76.20;;;;;;5068523;28;20451;-62
2022/10/28 12:27:03;;;;;;;9.80;3.90;;;21.40;79.00;;;;;;5065639;28;20475;-63
2022/10/28 12:29:42;;;;;;;10.90;4.33;;;21.30;80.30;;;;;;5068359;28;20437;-64
2022/10/28 12:32:12;;;;;;;16.50;4.20;;;21.30;79.00;;;;;;5062648;28;20444;-63
2022/10/28 12:34:47;;;;;;;14.20;4.10;;;21.50;79.70;;;;;;5066112;28;20466;-63
2022/10/28 12:37:18;;;;;;;15.07;4.60;;;21.60;79.40;;;;;;5064048;28;20444;-62
2022/10/28 12:39:53;;;;;;;9.30;4.03;;;21.90;75.60;;;;;;5063137;28;20930;-61
2022/10/28 12:42:27;;;;;;;11.03;4.20;;;22.00;71.50;;;;;;5067507;28;20471;-61
2022/10/28 12:44:56;;;;;;;10.97;3.70;;;21.70;70.30;;;;;;5067021;28;20497;-60
2022/10/28 12:47:57;;;;;;;11.00;3.90;;;21.50;73.50;;;;;;5064470;28;20433;-63
2022/10/28 12:50:38;;;;;;;16.53;4.90;;;21.10;78.90;;;;;;5063479;28;20441;-62
2022/10/28 12:53:03;;;;;;;8.50;4.20;;;20.90;86.40;;;;;;5059379;28;20959;-62
2022/10/28 12:55:44;;;;;;;10.60;4.37;;;20.80;86.80;;;;;;5065121;28;20429;-62
2022/10/28 12:58:15;;;;;;;14.90;4.30;;;20.90;85.60;;;;;;5063249;28;20207;-62
2022/10/28 13:00:54;;;;;;;15.23;4.37;;;21.20;85.90;;;;;;5071875;28;20454;-62
2022/10/28 13:03:20;;;;;;;12.20;4.90;;;21.60;82.20;;;;;;5066607;28;20962;-62
2022/10/28 13:05:54;;;;;;;12.50;4.37;;;22.00;78.30;;;;;;5069968;28;20429;-62